Marlow, Oklahoma
Current Conditions -  °F | °C
As of 3:15 PM on Tuesday 21 Oct 2014 (Local Time) from KDUC Reporting Station
Scattered Clouds Scattered Clouds  
Wind Chill: 82°   Ceiling: Unl
Heat Index: 82°   Visibility: 10mi
Dew Point: 57°   Wind: 9mph
Humidity: 42%   Direction: 180°S
Pressure: 30.04"   Gusts: NA
Location:  34.65°N, 97.96°W
Report Text: KDUC 212015Z AUTO 18008KT 10SM SCT055 28/14 A3004 RMK AO2
Loading
Personal Weather Stations






























Interactive Weather Map
Tropical Storm Tracking
New forecast layout! Learn more

10-Day Weather Forecast

Advertisements
Track Severe Weather on mobile